Aptos, CA

10:08 PM PDT on August 22, 2014 (GMT -0700)
Watsonville Municipal | Change Station
CLOSE
Current Station
Airport
Location: Watsonville,
Elevation: 161 ft
Nearby Weather Stations

Elev 161 ft 36.94 °N, 121.79 °W | Updated 15 minutes ago

Overcast
Overcast
64 °F
Feels Like 64 °F
N
5
Wind Variable Wind from SSE

Today
High -- | Low -- °F
--% Chance of Precip.
Yesterday
High -- | Low -- °F
Precip. -- in
6:30 AM 7:49 PM
Waning Crescent, 5% visible
Pressure 29.96 in
Visibility 10.0 miles
Clouds Overcast 800 ft
Dew Point 58 °F
Humidity 80%
Rainfall 0.00 in
Snow Depth Not available.
UV 0 out of 12
Pollen 5.70 out of 12
Air Quality Not available.
Flu Activity Not available.
METAR KWVI 230453Z AUTO 15004KT 10SM OVC008 18/14 A2996 RMK AO2 SLP144 T01780144

More Conditions Fewer Conditions

Pressure 29.96 in
Visibility 10.0 miles
Clouds Overcast 800 ft
Dew Point 58 °F
Humidity 80%
Rainfall 0.00 in
Snow Depth Not available.
UV 0 out of 12
Pollen 5.70 out of 12
Air Quality Not available.
Flu Activity Not available.
METAR KWVI 230453Z AUTO 15004KT 10SM OVC008 18/14 A2996 RMK AO2 SLP144 T01780144

More Conditions Fewer Conditions

10-Day Weather Forecast

Almanac

Astronomy

Aug. 22, 2014 Rise Set
Actual Time 6:30 AM PDT 7:49 PM PDT
Civil Twilight 6:03 AM PDT 8:16 PM PDT
Nautical Twilight 5:30 AM PDT 8:49 PM PDT
Astronomical Twilight 4:56 AM PDT 9:23 PM PDT
Moon 3:59 AM PDT (8/22) 6:00 PM PDT (8/22)
Length of Visible Light 14h 13m
Length of Day
13h 19m
Tomorrow will be 2m 11s shorter.
Waning Crescent, 5% of the Moon is Illuminated
Aug 23
Waning Crescent
Aug 25
New
Sep 2
First Quarter
Sep 8
Full
Sep 15
Last Quarter

Yesterday's Extremes

State Highs State Lows

Community

WunderPhotos

Upload Photos

1,746,366 photos uploaded!

WunderBlogs® & News

By Dr. Jeff Masters
Director of Meteorology, Weather Underground
By Kari Strenfel
Meteorologist, Weather Underground
By Christopher C. Burt
Weather Historian, Weather Underground
August 23, 2014
August 23, 2014
August 22, 2014

Nearby

Snow Depth

Station Depth Elevation
Leavitt Lake 0 in 9400 ft
Forestdale Creek 0 in 8029 ft
Leavitt Meadows 1 in 7200 ft
Summit Meadow 1 in 9122 ft
Echo Peak 1 in 7800 ft

Earthquake Activity

City Distance Mag. Time & Date
Berkeley, California 64 miles 2.6 7:41 PM PDT
2014-08-16
King City, California 74 miles 2.7 10:26 PM PDT
2014-08-15
Minimum magnitude displayed is 2.5.

Coastal Water Temperatures

Place Temperature
Monterey, CA 62.1 °F
Redwood City, CA 73.9 °F

Nearby Weather Stations